aviador You're here:

PAVL Decoded Metar

KIVALINA in AK, USA
Report Time2018-06-24 08:53:00
UTC Time2018-06-24 09:19:04
Flight Rules vfr VFR
WindCalm
Visibility9999 m
Phenomena:N/A
Clouds:N/A
Expected CloudBase > 2,000 ft AGL from Temp-Dew spread
CeilingNone
Temp09°C (ISA -6)
Dew Point04°C (71% RH)
AAT7.7°C
QNH1019 hPa
Density Alt-801 ft
Elevation10 ft
Report Wrong Elevation
Raw Report
PAVL 240853Z AUTO 00000KT 10SM CLR 09/04 A3008 RMK AO2 SLP186
T00890039 401110083 58003 TSNO=

Extra information for PAVL:More info

Metar Taf Metar & Taf Last 4 Metars F.Rules Stats Wind Profile Meteogram Temp Stats Airport Information Weather charts Add Link Nearby VenuesMetar ALERT Operation Metar Decoded Social comments

AIRNAV info for PAVL